Time;durP1;ratioP1;P1;durP2;ratioP2;P2;SDS_P1;SDS_P2;PMS_P1;PMS_P2;Temp;Humidity;BMP_temperature;BMP_pressure;BME280_temperature;BME280_humidity;BME280_pressure;Samples;Min_cycle;Max_cycle;Signal;HPM_P1;HPM_P2
2022/06/10 00:00:56;;;;;;;24.37;22.97;;;;;;;;;;5094130;28;20460;-85
2022/06/10 00:03:25;;;;;;;23.13;21.67;;;;;;;;;;5093804;28;20442;-85
2022/06/10 00:05:53;;;;;;;24.07;22.50;;;;;;;;;;5093907;28;20416;-85
2022/06/10 00:08:22;;;;;;;24.00;22.30;;;;;;;;;;5094364;28;20427;-85
2022/06/10 00:10:50;;;;;;;23.30;21.80;;;;;;;;;;5075810;28;20494;-85
2022/06/10 00:13:19;;;;;;;24.73;23.23;;;;;;;;;;5094121;28;20415;-85
2022/06/10 00:15:47;;;;;;;24.10;22.70;;;;;;;;;;5094288;28;20481;-85
2022/06/10 00:18:16;;;;;;;24.27;22.97;;;;;;;;;;5095878;28;20544;-85
2022/06/10 00:20:43;;;;;;;23.40;22.10;;;;;;;;;;5097288;28;20463;-85
2022/06/10 00:23:11;;;;;;;23.60;22.30;;;;;;;;;;5095386;28;20419;-83
2022/06/10 00:25:38;;;;;;;24.90;23.40;;;;;;;;;;5095913;28;20409;-85
2022/06/10 00:28:06;;;;;;;24.70;23.30;;;;;;;;;;5078517;28;20416;-85
2022/06/10 00:30:35;;;;;;;24.77;23.37;;;;;;;;;;5095630;28;20423;-85
2022/06/10 00:33:03;;;;;;;25.73;24.20;;;;;;;;;;5098731;28;20441;-85
2022/06/10 00:35:31;;;;;;;25.23;23.83;;;;;;;;;;5095896;28;20467;-85
2022/06/10 00:37:58;;;;;;;26.70;25.10;;;;;;;;;;5096135;28;20452;-85
2022/06/10 00:40:26;;;;;;;25.30;23.93;;;;;;;;;;5099897;28;20489;-85
2022/06/10 00:42:56;;;;;;;25.40;23.57;;;;;;;;;;5095728;28;20453;-85
2022/06/10 00:45:42;;;;;;;25.70;24.00;;;;;;;;;;5096340;28;21000;-85
2022/06/10 00:48:15;;;;;;;26.13;24.30;;;;;;;;;;5096545;28;20435;-85
2022/06/10 00:50:43;;;;;;;25.30;23.80;;;;;;;;;;5096077;28;20426;-85
2022/06/10 00:53:12;;;;;;;26.40;24.70;;;;;;;;;;5095668;28;20432;-85
2022/06/10 00:55:41;;;;;;;23.87;22.53;;;;;;;;;;5097904;28;20447;-84
2022/06/10 00:58:16;;;;;;;25.30;23.70;;;;;;;;;;5100244;28;20444;-85
2022/06/10 01:00:44;;;;;;;26.67;24.97;;;;;;;;;;5099615;28;20425;-85
2022/06/10 01:03:12;;;;;;;25.67;24.00;;;;;;;;;;5099761;28;20412;-85
2022/06/10 01:05:40;;;;;;;24.97;23.57;;;;;;;;;;5098532;28;20446;-85
2022/06/10 01:08:10;;;;;;;25.60;24.10;;;;;;;;;;5098585;28;20437;-84
2022/06/10 01:10:42;;;;;;;25.23;23.63;;;;;;;;;;5099515;28;20433;-85
2022/06/10 01:13:16;;;;;;;25.17;23.77;;;;;;;;;;5097612;28;20438;-85
2022/06/10 01:15:47;;;;;;;23.40;21.87;;;;;;;;;;5097658;28;20484;-84
2022/06/10 01:18:22;;;;;;;24.30;22.90;;;;;;;;;;5080702;28;20797;-84
2022/06/10 01:20:56;;;;;;;24.40;22.80;;;;;;;;;;5098714;28;20509;-85
2022/06/10 01:23:37;;;;;;;25.47;23.93;;;;;;;;;;5099710;28;20420;-85
2022/06/10 01:26:22;;;;;;;26.17;24.47;;;;;;;;;;5096799;28;20419;-84
2022/06/10 01:29:17;;;;;;;27.07;25.47;;;;;;;;;;5096888;28;20513;-85
2022/06/10 01:31:48;;;;;;;25.13;23.70;;;;;;;;;;5096549;28;20946;-84
2022/06/10 01:34:22;;;;;;;25.90;24.50;;;;;;;;;;5096511;28;20442;-83
2022/06/10 01:36:53;;;;;;;25.60;24.00;;;;;;;;;;5096422;28;20464;-85
2022/06/10 01:39:25;;;;;;;25.73;24.23;;;;;;;;;;5096664;28;20413;-85
2022/06/10 01:41:56;;;;;;;25.50;23.90;;;;;;;;;;5096695;28;20412;-85
2022/06/10 01:44:30;;;;;;;26.37;24.60;;;;;;;;;;5100877;28;20474;-85
2022/06/10 01:47:03;;;;;;;25.40;23.80;;;;;;;;;;5096372;28;20432;-84
2022/06/10 01:49:31;;;;;;;25.23;23.80;;;;;;;;;;5096532;28;20923;-84
2022/06/10 01:52:01;;;;;;;26.13;24.53;;;;;;;;;;5078356;28;20531;-85
2022/06/10 01:54:33;;;;;;;27.53;25.77;;;;;;;;;;5096238;28;20894;-84
2022/06/10 01:57:04;;;;;;;27.37;25.73;;;;;;;;;;5095724;28;20495;-85
2022/06/10 01:59:33;;;;;;;26.70;25.10;;;;;;;;;;5096263;28;20802;-84
2022/06/10 02:02:05;;;;;;;27.40;25.70;;;;;;;;;;5095981;28;20901;-84
2022/06/10 02:04:34;;;;;;;26.77;25.17;;;;;;;;;;5095428;28;20785;-84
2022/06/10 02:07:04;;;;;;;26.20;24.60;;;;;;;;;;5094903;28;20417;-84
2022/06/10 02:09:35;;;;;;;26.57;24.97;;;;;;;;;;5095449;28;20430;-84
2022/06/10 02:12:04;;;;;;;26.67;24.97;;;;;;;;;;5095736;28;20479;-85
2022/06/10 02:14:37;;;;;;;25.70;24.27;;;;;;;;;;5095364;28;20411;-85
2022/06/10 02:17:06;;;;;;;26.30;24.70;;;;;;;;;;5095490;28;20470;-84
2022/06/10 02:19:37;;;;;;;26.83;25.17;;;;;;;;;;5098145;28;20424;-85
2022/06/10 02:22:08;;;;;;;26.90;25.03;;;;;;;;;;5095728;28;20493;-85
2022/06/10 02:24:39;;;;;;;26.33;24.63;;;;;;;;;;5095664;28;20982;-85
2022/06/10 02:27:08;;;;;;;26.63;25.00;;;;;;;;;;5095397;28;20412;-85
2022/06/10 02:29:39;;;;;;;27.33;25.67;;;;;;;;;;5095400;28;20416;-85
2022/06/10 02:32:08;;;;;;;26.10;24.50;;;;;;;;;;5095718;28;20404;-84
2022/06/10 02:34:36;;;;;;;28.20;26.10;;;;;;;;;;5097983;28;20767;-85
2022/06/10 02:37:07;;;;;;;28.07;26.17;;;;;;;;;;5078174;28;20476;-85
2022/06/10 02:39:38;;;;;;;29.10;26.90;;;;;;;;;;5094979;28;20404;-85
2022/06/10 02:42:10;;;;;;;28.27;26.37;;;;;;;;;;5095186;28;20440;-83
2022/06/10 02:44:40;;;;;;;26.30;24.60;;;;;;;;;;5094987;28;20441;-85
2022/06/10 02:47:13;;;;;;;28.20;26.33;;;;;;;;;;5094970;28;20786;-84
2022/06/10 02:49:40;;;;;;;27.53;25.73;;;;;;;;;;5094672;28;20452;-85
2022/06/10 02:52:10;;;;;;;26.93;25.23;;;;;;;;;;5094997;28;20440;-85
2022/06/10 02:54:39;;;;;;;28.60;26.80;;;;;;;;;;5095080;28;20407;-84
2022/06/10 02:57:12;;;;;;;28.70;26.87;;;;;;;;;;5094374;28;20488;-84
2022/06/10 03:02:44;;;;;;;29.87;27.87;;;;;;;;;;5060314;28;20431;-85
2022/06/10 03:05:18;;;;;;;28.50;26.50;;;;;;;;;;5076931;28;20434;-85
2022/06/10 03:07:56;;;;;;;29.50;27.60;;;;;;;;;;5094555;28;20441;-85
2022/06/10 03:10:27;;;;;;;27.63;25.93;;;;;;;;;;5094224;28;20938;-85
2022/06/10 03:12:59;;;;;;;29.70;27.70;;;;;;;;;;5094482;28;20826;-84
2022/06/10 03:15:34;;;;;;;27.87;25.97;;;;;;;;;;5093857;28;20545;-83
2022/06/10 03:18:06;;;;;;;28.60;26.70;;;;;;;;;;5093372;28;20400;-85
2022/06/10 03:20:36;;;;;;;29.00;26.87;;;;;;;;;;5094095;28;20797;-84
2022/06/10 03:23:09;;;;;;;29.70;27.77;;;;;;;;;;5094463;28;20427;-85
2022/06/10 03:25:39;;;;;;;30.87;28.67;;;;;;;;;;5076311;28;20441;-84
2022/06/10 03:28:11;;;;;;;28.60;26.70;;;;;;;;;;5094069;28;20428;-85
2022/06/10 03:30:41;;;;;;;30.43;28.40;;;;;;;;;;5094053;28;20423;-84
2022/06/10 03:33:15;;;;;;;30.53;28.20;;;;;;;;;;5094001;28;20445;-85
2022/06/10 03:35:45;;;;;;;31.00;28.80;;;;;;;;;;5094373;28;20405;-86
2022/06/10 03:38:13;;;;;;;29.17;27.17;;;;;;;;;;5094484;28;20473;-84
2022/06/10 03:40:40;;;;;;;30.13;28.00;;;;;;;;;;5093815;28;20931;-84
2022/06/10 03:43:09;;;;;;;30.27;28.27;;;;;;;;;;5094044;28;20434;-85
2022/06/10 03:45:38;;;;;;;30.63;28.47;;;;;;;;;;5094183;28;20445;-85
2022/06/10 03:48:06;;;;;;;30.70;28.40;;;;;;;;;;5094273;28;20438;-85
2022/06/10 03:50:38;;;;;;;31.10;28.70;;;;;;;;;;5094052;28;20445;-85
2022/06/10 03:53:06;;;;;;;31.17;28.97;;;;;;;;;;5094499;28;20509;-84
2022/06/10 03:55:33;;;;;;;31.00;28.90;;;;;;;;;;5094406;28;20412;-85
2022/06/10 03:58:00;;;;;;;31.30;28.90;;;;;;;;;;5094396;28;20471;-86
2022/06/10 04:00:29;;;;;;;30.73;28.53;;;;;;;;;;5095029;28;20804;-85
2022/06/10 04:02:57;;;;;;;31.23;28.87;;;;;;;;;;5095480;28;20475;-84
2022/06/10 04:05:24;;;;;;;30.53;28.53;;;;;;;;;;5095454;28;20433;-86
2022/06/10 04:07:53;;;;;;;30.83;28.50;;;;;;;;;;5094154;28;20771;-86
2022/06/10 04:10:22;;;;;;;30.90;28.70;;;;;;;;;;5094465;28;20442;-85
2022/06/10 04:12:49;;;;;;;32.00;29.80;;;;;;;;;;5094149;28;20802;-86
2022/06/10 04:15:17;;;;;;;29.97;27.77;;;;;;;;;;5094221;28;20418;-85
2022/06/10 04:17:45;;;;;;;31.33;28.97;;;;;;;;;;5093637;28;20485;-86
2022/06/10 04:20:16;;;;;;;30.07;28.07;;;;;;;;;;5093523;28;20997;-85
2022/06/10 04:22:43;;;;;;;31.00;28.80;;;;;;;;;;5093841;28;20465;-85
2022/06/10 04:25:13;;;;;;;30.13;28.03;;;;;;;;;;5093927;28;20408;-86
2022/06/10 04:27:41;;;;;;;29.77;27.67;;;;;;;;;;5094183;28;20445;-86
2022/06/10 04:30:09;;;;;;;31.00;28.80;;;;;;;;;;5095501;28;20420;-85
2022/06/10 04:32:37;;;;;;;33.93;31.60;;;;;;;;;;5097307;28;20412;-85
2022/06/10 04:35:04;;;;;;;30.80;28.53;;;;;;;;;;5097723;28;20412;-86
2022/06/10 04:37:32;;;;;;;34.53;32.13;;;;;;;;;;5097292;28;20483;-85
2022/06/10 04:39:59;;;;;;;31.73;29.23;;;;;;;;;;5097835;28;20773;-86
2022/06/10 04:42:28;;;;;;;35.07;32.10;;;;;;;;;;5097787;28;20775;-85
2022/06/10 04:44:57;;;;;;;32.80;30.37;;;;;;;;;;5097401;28;20407;-85
2022/06/10 04:47:24;;;;;;;36.47;33.40;;;;;;;;;;5097587;28;20457;-85
2022/06/10 04:49:52;;;;;;;33.33;30.60;;;;;;;;;;5097386;28;20430;-84
2022/06/10 04:52:19;;;;;;;34.57;32.07;;;;;;;;;;5097598;28;20814;-85
2022/06/10 04:54:47;;;;;;;33.07;30.67;;;;;;;;;;5097268;28;20427;-84
2022/06/10 04:57:15;;;;;;;33.47;31.20;;;;;;;;;;5097144;28;20489;-84
2022/06/10 04:59:44;;;;;;;32.70;29.90;;;;;;;;;;5079621;28;20466;-85
2022/06/10 05:02:11;;;;;;;33.70;31.00;;;;;;;;;;5098683;28;20420;-86
2022/06/10 05:04:38;;;;;;;33.60;31.10;;;;;;;;;;5097448;28;20415;-86
2022/06/10 05:07:06;;;;;;;32.97;30.57;;;;;;;;;;5097397;28;20467;-86
2022/06/10 05:09:33;;;;;;;33.80;31.20;;;;;;;;;;5097985;28;20433;-86
2022/06/10 05:12:01;;;;;;;34.10;31.63;;;;;;;;;;5097444;28;20432;-87
2022/06/10 05:14:28;;;;;;;33.03;30.73;;;;;;;;;;5097326;28;20766;-86
2022/06/10 05:16:57;;;;;;;33.37;30.63;;;;;;;;;;5097181;28;20980;-85
2022/06/10 05:19:25;;;;;;;32.63;30.03;;;;;;;;;;5098533;28;20442;-84
2022/06/10 05:21:52;;;;;;;31.90;29.70;;;;;;;;;;5097712;28;20474;-84
2022/06/10 05:24:19;;;;;;;30.67;28.43;;;;;;;;;;5099729;28;20416;-84
2022/06/10 05:26:47;;;;;;;31.37;29.17;;;;;;;;;;5096303;28;20435;-85
2022/06/10 05:29:14;;;;;;;30.83;28.27;;;;;;;;;;5078284;28;20499;-84
2022/06/10 05:31:42;;;;;;;30.60;28.43;;;;;;;;;;5098179;28;20500;-84
2022/06/10 05:36:56;;;;;;;31.20;28.90;;;;;;;;;;5096220;28;20609;-85
2022/06/10 05:39:23;;;;;;;31.03;28.83;;;;;;;;;;5096544;28;20450;-84
2022/06/10 05:42:06;;;;;;;30.03;27.83;;;;;;;;;;5095646;28;20889;-83
2022/06/10 05:44:33;;;;;;;30.23;27.60;;;;;;;;;;5096153;28;20420;-83
2022/06/10 05:47:01;;;;;;;29.20;27.20;;;;;;;;;;5095612;28;20435;-82
2022/06/10 05:49:30;;;;;;;29.70;27.50;;;;;;;;;;5096088;28;20408;-85
2022/06/10 05:51:58;;;;;;;28.93;27.07;;;;;;;;;;5096043;28;20420;-82
2022/06/10 05:54:25;;;;;;;29.17;26.97;;;;;;;;;;5095544;28;20408;-83
2022/06/10 05:56:53;;;;;;;29.13;26.90;;;;;;;;;;5095659;28;20448;-83
2022/06/10 05:59:22;;;;;;;27.40;25.60;;;;;;;;;;5095788;28;20436;-83
2022/06/10 06:01:49;;;;;;;30.03;27.73;;;;;;;;;;5095338;28;20422;-83
2022/06/10 06:04:16;;;;;;;28.27;26.37;;;;;;;;;;5095402;28;20401;-83
2022/06/10 06:06:45;;;;;;;29.37;27.23;;;;;;;;;;5095687;28;20434;-83
2022/06/10 06:09:15;;;;;;;27.27;25.40;;;;;;;;;;5095688;28;20459;-84
2022/06/10 06:11:43;;;;;;;28.73;26.83;;;;;;;;;;5095343;28;20442;-84
2022/06/10 06:14:10;;;;;;;27.80;25.90;;;;;;;;;;5095605;28;20421;-83
2022/06/10 06:16:37;;;;;;;27.00;25.17;;;;;;;;;;5095513;28;20782;-83
2022/06/10 06:19:05;;;;;;;27.63;25.63;;;;;;;;;;5106573;28;20429;-84
2022/06/10 06:21:33;;;;;;;27.10;25.20;;;;;;;;;;5100217;28;20480;-84
2022/06/10 06:24:02;;;;;;;26.30;24.50;;;;;;;;;;5098012;28;20438;-86
2022/06/10 06:26:29;;;;;;;28.70;26.60;;;;;;;;;;5095403;28;20453;-83
2022/06/10 06:28:56;;;;;;;27.73;25.50;;;;;;;;;;5097003;28;20938;-91
2022/06/10 06:31:25;;;;;;;25.70;23.83;;;;;;;;;;5096302;28;20460;-82
2022/06/10 06:33:52;;;;;;;28.13;26.10;;;;;;;;;;5094042;28;20440;-80
2022/06/10 06:36:22;;;;;;;28.73;26.47;;;;;;;;;;5095028;28;20433;-80
2022/06/10 06:38:49;;;;;;;28.67;26.80;;;;;;;;;;5094823;28;20994;-82
2022/06/10 06:41:18;;;;;;;27.23;25.43;;;;;;;;;;5094474;28;20445;-82
2022/06/10 06:43:45;;;;;;;27.20;25.33;;;;;;;;;;5094399;28;20485;-82
2022/06/10 06:46:13;;;;;;;28.17;26.13;;;;;;;;;;5094142;28;20409;-82
2022/06/10 06:48:41;;;;;;;28.47;26.57;;;;;;;;;;5094280;28;20412;-82
2022/06/10 06:51:09;;;;;;;28.90;26.80;;;;;;;;;;5094061;28;20444;-82
2022/06/10 06:53:36;;;;;;;29.37;27.00;;;;;;;;;;5094036;28;20800;-82
2022/06/10 06:56:04;;;;;;;27.67;25.77;;;;;;;;;;5094327;28;20438;-82
2022/06/10 06:58:33;;;;;;;27.73;25.63;;;;;;;;;;5093879;28;20485;-82
2022/06/10 07:01:01;;;;;;;29.10;27.10;;;;;;;;;;5094298;28;20809;-82
2022/06/10 07:03:28;;;;;;;28.13;26.23;;;;;;;;;;5094247;28;20870;-82
2022/06/10 07:05:57;;;;;;;27.27;25.37;;;;;;;;;;5093867;28;20431;-82
2022/06/10 07:08:31;;;;;;;26.17;24.43;;;;;;;;;;5094261;28;20927;-82
2022/06/10 07:10:58;;;;;;;27.60;25.73;;;;;;;;;;5094358;28;20478;-85
2022/06/10 07:13:26;;;;;;;25.77;24.17;;;;;;;;;;5094423;28;20440;-82
2022/06/10 07:15:55;;;;;;;26.57;24.57;;;;;;;;;;5094222;28;20476;-85
2022/06/10 07:18:23;;;;;;;25.87;24.13;;;;;;;;;;5075862;28;20866;-85
2022/06/10 07:20:50;;;;;;;25.93;24.13;;;;;;;;;;5093921;28;20491;-85
2022/06/10 07:23:19;;;;;;;27.27;25.37;;;;;;;;;;5093928;28;20465;-85
2022/06/10 07:25:47;;;;;;;28.13;26.23;;;;;;;;;;5094687;28;20453;-83
2022/06/10 07:28:15;;;;;;;25.90;23.60;;;;;;;;;;5094787;28;20469;-83
2022/06/10 07:30:43;;;;;;;25.83;24.07;;;;;;;;;;5094678;28;20805;-83
2022/06/10 07:33:12;;;;;;;25.67;23.87;;;;;;;;;;5094652;28;20513;-83
2022/06/10 07:35:40;;;;;;;25.57;23.77;;;;;;;;;;5095674;28;20424;-83
2022/06/10 07:38:07;;;;;;;24.90;23.13;;;;;;;;;;5094857;28;20489;-83
2022/06/10 07:43:21;;;;;;;24.83;23.23;;;;;;;;;;5093363;28;20425;-83
2022/06/10 07:45:49;;;;;;;26.47;24.40;;;;;;;;;;5093410;28;20405;-83
2022/06/10 07:48:18;;;;;;;24.47;22.57;;;;;;;;;;5093129;28;20788;-83
2022/06/10 07:50:46;;;;;;;24.17;22.67;;;;;;;;;;5093286;28;20408;-83
2022/06/10 07:53:14;;;;;;;24.70;23.17;;;;;;;;;;5093572;28;20801;-82
2022/06/10 07:55:42;;;;;;;24.13;22.50;;;;;;;;;;5093349;28;20433;-83
2022/06/10 07:58:10;;;;;;;24.43;22.70;;;;;;;;;;5093096;28;20493;-83
2022/06/10 08:00:38;;;;;;;23.70;21.80;;;;;;;;;;5093390;28;20463;-83
2022/06/10 08:03:06;;;;;;;22.33;20.70;;;;;;;;;;5093522;28;20777;-82
2022/06/10 08:05:35;;;;;;;22.50;21.10;;;;;;;;;;5093300;28;20504;-83
2022/06/10 08:08:03;;;;;;;22.23;20.57;;;;;;;;;;5075273;28;20434;-83
2022/06/10 08:10:32;;;;;;;22.33;20.80;;;;;;;;;;5094056;28;21110;-83
2022/06/10 08:13:00;;;;;;;22.87;21.27;;;;;;;;;;5075884;28;20448;-83
2022/06/10 08:15:28;;;;;;;22.87;21.57;;;;;;;;;;5074898;28;20910;-82
2022/06/10 08:17:56;;;;;;;23.33;21.83;;;;;;;;;;5093286;28;20485;-83
2022/06/10 08:22:32;;;;;;;23.13;21.57;;;;;;;;;;5092828;28;20467;-83
2022/06/10 08:23:13;;;;;;;22.83;21.33;;;;;;;;;;5093190;28;20452;-83
2022/06/10 08:25:40;;;;;;;22.20;20.70;;;;;;;;;;5093357;28;20910;-82
2022/06/10 08:28:08;;;;;;;23.70;21.17;;;;;;;;;;5093880;28;20435;-82
2022/06/10 08:30:36;;;;;;;22.60;20.83;;;;;;;;;;5093636;28;20412;-82
2022/06/10 08:33:03;;;;;;;24.43;22.83;;;;;;;;;;5094824;28;20800;-83
2022/06/10 08:35:31;;;;;;;24.47;22.70;;;;;;;;;;5093539;28;20465;-83
2022/06/10 08:37:59;;;;;;;23.80;22.30;;;;;;;;;;5092908;28;20566;-83
2022/06/10 08:40:32;;;;;;;24.07;22.67;;;;;;;;;;5092841;28;20420;-83
2022/06/10 08:43:03;;;;;;;25.03;23.20;;;;;;;;;;5092703;28;20413;-83
2022/06/10 08:45:34;;;;;;;23.70;22.20;;;;;;;;;;5093216;28;20461;-82
2022/06/10 08:48:06;;;;;;;23.47;21.97;;;;;;;;;;5092762;28;20429;-83
2022/06/10 08:50:45;;;;;;;24.33;22.70;;;;;;;;;;5092904;28;20434;-83
2022/06/10 08:53:31;;;;;;;23.80;22.10;;;;;;;;;;5093071;28;20415;-83
2022/06/10 08:56:03;;;;;;;22.83;21.33;;;;;;;;;;5095278;28;20416;-83
2022/06/10 08:58:33;;;;;;;23.50;21.87;;;;;;;;;;5098458;28;20504;-83
2022/06/10 09:01:02;;;;;;;23.13;21.27;;;;;;;;;;5093131;28;20872;-83
2022/06/10 09:03:35;;;;;;;22.93;21.17;;;;;;;;;;5092831;28;20445;-83
2022/06/10 09:06:04;;;;;;;24.17;22.43;;;;;;;;;;5094611;28;20481;-83
2022/06/10 09:08:33;;;;;;;23.40;21.80;;;;;;;;;;5092822;28;20416;-83
2022/06/10 09:11:08;;;;;;;22.10;20.40;;;;;;;;;;5092549;28;20923;-83
2022/06/10 09:13:38;;;;;;;23.40;21.80;;;;;;;;;;5092848;28;20433;-83
2022/06/10 09:16:10;;;;;;;24.10;22.40;;;;;;;;;;5074452;28;20444;-81
2022/06/10 09:18:41;;;;;;;23.07;21.37;;;;;;;;;;5096134;28;20507;-82
2022/06/10 09:21:11;;;;;;;22.80;21.20;;;;;;;;;;5095813;28;20452;-83
2022/06/10 09:23:40;;;;;;;22.13;20.83;;;;;;;;;;5095917;28;20413;-83
2022/06/10 09:26:10;;;;;;;21.97;20.67;;;;;;;;;;5095818;28;20783;-83
2022/06/10 09:28:38;;;;;;;22.60;21.10;;;;;;;;;;5096032;28;20449;-83
2022/06/10 09:31:07;;;;;;;23.10;21.50;;;;;;;;;;5095948;28;20454;-83
2022/06/10 09:33:38;;;;;;;23.13;21.30;;;;;;;;;;5095876;28;20412;-83
2022/06/10 09:36:09;;;;;;;23.30;21.60;;;;;;;;;;5096244;28;20457;-82
2022/06/10 09:38:39;;;;;;;23.23;21.43;;;;;;;;;;5095647;28;20492;-83
2022/06/10 09:41:11;;;;;;;29.73;21.90;;;;;;;;;;5096249;28;20437;-83
2022/06/10 09:43:46;;;;;;;23.93;22.20;;;;;;;;;;5095837;28;20414;-83
2022/06/10 09:46:22;;;;;;;22.73;21.30;;;;;;;;;;5095716;28;20957;-83
2022/06/10 09:48:57;;;;;;;24.20;22.53;;;;;;;;;;5095851;28;20481;-83
2022/06/10 09:51:29;;;;;;;25.50;23.83;;;;;;;;;;5095721;28;20455;-83
2022/06/10 09:54:11;;;;;;;24.30;22.70;;;;;;;;;;5095186;28;20420;-83
2022/06/10 09:56:47;;;;;;;23.57;21.90;;;;;;;;;;5095512;28;20441;-83
2022/06/10 09:59:20;;;;;;;22.93;21.53;;;;;;;;;;5094810;28;20496;-83
2022/06/10 10:01:51;;;;;;;23.77;22.17;;;;;;;;;;5095477;28;20420;-83
2022/06/10 10:04:27;;;;;;;24.17;22.10;;;;;;;;;;5095153;28;20457;-83
2022/06/10 10:07:00;;;;;;;22.73;21.37;;;;;;;;;;5095131;28;20407;-83
2022/06/10 10:09:32;;;;;;;23.20;21.60;;;;;;;;;;5095731;28;20877;-82
2022/06/10 10:12:06;;;;;;;23.30;21.80;;;;;;;;;;5096740;28;20915;-83
2022/06/10 10:14:36;;;;;;;23.40;22.00;;;;;;;;;;5096164;28;20882;-83
2022/06/10 10:17:14;;;;;;;23.20;21.60;;;;;;;;;;5095258;28;20408;-83
2022/06/10 10:19:50;;;;;;;22.63;21.30;;;;;;;;;;5094658;28;20463;-82
2022/06/10 10:22:33;;;;;;;22.23;20.77;;;;;;;;;;5094626;28;20437;-83
2022/06/10 10:25:00;;;;;;;23.00;21.50;;;;;;;;;;5092644;28;20465;-83
2022/06/10 10:27:32;;;;;;;22.60;21.10;;;;;;;;;;5094367;28;20457;-83
2022/06/10 10:30:04;;;;;;;22.30;20.90;;;;;;;;;;5094499;28;20484;-83
2022/06/10 10:32:35;;;;;;;21.73;20.43;;;;;;;;;;5094851;28;20792;-83
2022/06/10 10:35:05;;;;;;;23.67;22.10;;;;;;;;;;5094451;28;20409;-83
2022/06/10 10:37:34;;;;;;;23.37;21.73;;;;;;;;;;5094636;28;20405;-83
2022/06/10 10:40:04;;;;;;;23.50;21.50;;;;;;;;;;5094392;28;20500;-83
2022/06/10 10:42:35;;;;;;;23.53;21.80;;;;;;;;;;5076107;28;20452;-83
2022/06/10 10:45:03;;;;;;;22.97;21.10;;;;;;;;;;5095393;28;20777;-83
2022/06/10 10:47:31;;;;;;;22.97;21.03;;;;;;;;;;5095842;28;20910;-84
2022/06/10 10:50:18;;;;;;;21.87;20.47;;;;;;;;;;5077457;28;20421;-83
2022/06/10 10:52:46;;;;;;;22.63;20.93;;;;;;;;;;5094990;28;20473;-83
2022/06/10 10:55:30;;;;;;;22.20;20.70;;;;;;;;;;5095882;28;20457;-83
2022/06/10 10:58:06;;;;;;;22.50;21.00;;;;;;;;;;5095656;28;20552;-82
2022/06/10 11:00:35;;;;;;;22.97;21.33;;;;;;;;;;5097002;28;20947;-82
2022/06/10 11:03:03;;;;;;;23.37;21.70;;;;;;;;;;5100190;28;20430;-83
2022/06/10 11:05:35;;;;;;;23.23;21.83;;;;;;;;;;5098793;28;20778;-83
2022/06/10 11:08:17;;;;;;;23.90;22.30;;;;;;;;;;5094798;28;20428;-83
2022/06/10 11:10:52;;;;;;;23.30;21.70;;;;;;;;;;5093363;28;20488;-83
2022/06/10 11:13:22;;;;;;;22.57;20.97;;;;;;;;;;5095416;28;20447;-82
2022/06/10 11:15:50;;;;;;;22.53;21.07;;;;;;;;;;5098773;28;20473;-83
2022/06/10 11:18:17;;;;;;;22.17;20.77;;;;;;;;;;5096255;28;20412;-83
2022/06/10 11:20:44;;;;;;;22.80;21.30;;;;;;;;;;5093962;28;20463;-83
2022/06/10 11:23:13;;;;;;;22.53;21.03;;;;;;;;;;5093933;28;20921;-82
2022/06/10 11:25:41;;;;;;;23.20;21.70;;;;;;;;;;5093459;28;20444;-83
2022/06/10 11:28:19;;;;;;;23.07;21.63;;;;;;;;;;5094104;28;20413;-83
2022/06/10 11:30:49;;;;;;;23.13;21.70;;;;;;;;;;5075817;28;20428;-83
2022/06/10 11:33:22;;;;;;;23.97;22.23;;;;;;;;;;5094116;28;20437;-83
2022/06/10 11:36:01;;;;;;;22.73;21.30;;;;;;;;;;5093850;28;20427;-83
2022/06/10 11:38:30;;;;;;;22.87;21.37;;;;;;;;;;5093903;28;20480;-84
2022/06/10 11:40:58;;;;;;;22.47;21.07;;;;;;;;;;5093254;28;20919;-83
2022/06/10 11:43:28;;;;;;;22.23;20.73;;;;;;;;;;5093799;28;20449;-83
2022/06/10 11:46:01;;;;;;;24.20;22.50;;;;;;;;;;5093997;28;20408;-84
2022/06/10 11:48:34;;;;;;;23.97;22.23;;;;;;;;;;5094379;28;20426;-83
2022/06/10 11:51:04;;;;;;;22.30;20.90;;;;;;;;;;5094314;28;20411;-82
2022/06/10 11:53:37;;;;;;;23.90;22.40;;;;;;;;;;5093475;28;20864;-83
2022/06/10 12:01:47;;;;;;;24.23;22.30;;;;;;;;;;5093314;28;20428;-83
2022/06/10 12:04:16;;;;;;;22.77;21.37;;;;;;;;;;5093893;28;20853;-83
2022/06/10 12:06:48;;;;;;;24.00;22.43;;;;;;;;;;5093041;28;20464;-83
2022/06/10 12:09:19;;;;;;;24.23;22.43;;;;;;;;;;5093284;28;20434;-83
2022/06/10 12:11:51;;;;;;;24.80;23.10;;;;;;;;;;5093288;28;20441;-83
2022/06/10 12:14:20;;;;;;;23.40;21.83;;;;;;;;;;5093104;28;20434;-83
2022/06/10 12:16:52;;;;;;;23.80;22.20;;;;;;;;;;5092719;28;20445;-83
2022/06/10 12:19:22;;;;;;;24.80;23.10;;;;;;;;;;5092931;28;21009;-83
2022/06/10 12:21:49;;;;;;;23.63;21.80;;;;;;;;;;5092793;28;20485;-83
2022/06/10 12:24:17;;;;;;;26.03;23.17;;;;;;;;;;5092872;28;20416;-83
2022/06/10 12:26:49;;;;;;;23.80;22.30;;;;;;;;;;5093000;28;20460;-83
2022/06/10 12:29:18;;;;;;;24.03;22.47;;;;;;;;;;5093106;28;20445;-83
2022/06/10 12:32:01;;;;;;;23.13;21.70;;;;;;;;;;5093137;28;20415;-83
2022/06/10 12:34:38;;;;;;;24.23;22.30;;;;;;;;;;5092777;28;20438;-83
2022/06/10 12:37:07;;;;;;;24.60;22.90;;;;;;;;;;5093069;28;20818;-83
2022/06/10 12:39:39;;;;;;;23.87;22.20;;;;;;;;;;5092499;28;20833;-83
2022/06/10 12:42:12;;;;;;;23.17;21.57;;;;;;;;;;5092993;28;20440;-82
2022/06/10 12:44:41;;;;;;;23.07;21.57;;;;;;;;;;5092733;28;20408;-83
2022/06/10 12:47:12;;;;;;;23.20;21.70;;;;;;;;;;5092774;28;20524;-83
2022/06/10 12:49:41;;;;;;;23.30;21.70;;;;;;;;;;5092666;28;20442;-83
2022/06/10 12:52:21;;;;;;;22.90;21.50;;;;;;;;;;5096081;28;20433;-83
2022/06/10 12:54:50;;;;;;;22.63;21.23;;;;;;;;;;5096461;28;20433;-83
2022/06/10 12:57:36;;;;;;;23.60;22.10;;;;;;;;;;5096757;28;20451;-83
2022/06/10 13:00:22;;;;;;;22.57;21.17;;;;;;;;;;5096446;28;20514;-83
2022/06/10 13:02:51;;;;;;;23.30;21.80;;;;;;;;;;5097213;28;20412;-83
2022/06/10 13:05:20;;;;;;;22.70;21.10;;;;;;;;;;5097219;28;20437;-83
2022/06/10 13:07:49;;;;;;;22.53;21.00;;;;;;;;;;5097236;28;20434;-83
2022/06/10 13:10:35;;;;;;;22.80;21.30;;;;;;;;;;5097526;28;20433;-83
2022/06/10 13:13:11;;;;;;;21.80;20.50;;;;;;;;;;5096721;28;20434;-83
2022/06/10 13:15:39;;;;;;;22.43;20.97;;;;;;;;;;5097281;28;20448;-82
2022/06/10 13:18:29;;;;;;;22.87;21.40;;;;;;;;;;5097096;28;20441;-83
2022/06/10 13:20:57;;;;;;;22.20;20.67;;;;;;;;;;5095961;28;20500;-83
2022/06/10 13:23:25;;;;;;;21.90;20.60;;;;;;;;;;5096635;28;20424;-82
2022/06/10 13:25:54;;;;;;;22.60;21.07;;;;;;;;;;5095876;28;20429;-83
2022/06/10 13:28:26;;;;;;;22.20;20.70;;;;;;;;;;5095942;28;20440;-83
2022/06/10 13:31:03;;;;;;;23.33;21.67;;;;;;;;;;5077860;28;20446;-84
2022/06/10 13:33:32;;;;;;;23.30;21.53;;;;;;;;;;5095501;28;21224;-83
2022/06/10 13:35:59;;;;;;;23.23;21.73;;;;;;;;;;5096210;28;20440;-83
2022/06/10 13:38:29;;;;;;;23.10;21.50;;;;;;;;;;5096658;28;20919;-83
2022/06/10 13:43:39;;;;;;;23.40;21.70;;;;;;;;;;5094400;28;20994;-83
2022/06/10 13:46:07;;;;;;;23.00;21.50;;;;;;;;;;5095771;28;20433;-82
2022/06/10 13:48:35;;;;;;;23.07;21.37;;;;;;;;;;5078048;28;20420;-83
2022/06/10 13:51:18;;;;;;;24.00;22.50;;;;;;;;;;5095722;28;20758;-83
2022/06/10 13:53:54;;;;;;;23.63;22.03;;;;;;;;;;5095488;28;20446;-82
2022/06/10 13:56:26;;;;;;;24.00;22.30;;;;;;;;;;5096968;28;20457;-83
2022/06/10 13:58:54;;;;;;;25.00;22.77;;;;;;;;;;5095309;28;20469;-83
2022/06/10 14:01:23;;;;;;;23.30;21.70;;;;;;;;;;5096064;28;20441;-83
2022/06/10 14:03:55;;;;;;;23.90;22.40;;;;;;;;;;5095919;28;20454;-82
2022/06/10 14:06:23;;;;;;;23.90;22.30;;;;;;;;;;5096923;28;20770;-82
2022/06/10 14:08:54;;;;;;;24.20;22.80;;;;;;;;;;5096106;28;20439;-83
2022/06/10 14:11:24;;;;;;;25.70;23.70;;;;;;;;;;5095726;28;20996;-83
2022/06/10 14:13:53;;;;;;;24.27;22.60;;;;;;;;;;5101171;28;20415;-83
2022/06/10 14:16:21;;;;;;;24.40;22.90;;;;;;;;;;5097345;28;20404;-83
2022/06/10 14:18:49;;;;;;;24.60;23.10;;;;;;;;;;5095438;28;20430;-82
2022/06/10 14:21:17;;;;;;;24.47;22.77;;;;;;;;;;5094620;28;20525;-82
2022/06/10 14:24:05;;;;;;;24.20;22.33;;;;;;;;;;5098814;28;20448;-82
2022/06/10 14:26:33;;;;;;;23.90;22.40;;;;;;;;;;5097827;28;20400;-83
2022/06/10 14:29:15;;;;;;;23.67;22.27;;;;;;;;;;5095821;28;20461;-82
2022/06/10 14:31:43;;;;;;;24.27;22.67;;;;;;;;;;5094987;28;20433;-81
2022/06/10 14:34:19;;;;;;;24.30;22.83;;;;;;;;;;5096621;28;20490;-83
2022/06/10 14:36:53;;;;;;;23.67;22.27;;;;;;;;;;5096885;28;20441;-83
2022/06/10 14:39:25;;;;;;;24.93;23.40;;;;;;;;;;5094793;28;20834;-82
2022/06/10 14:41:54;;;;;;;23.57;22.07;;;;;;;;;;5094532;28;20445;-82
2022/06/10 14:44:23;;;;;;;24.27;22.57;;;;;;;;;;5076672;28;20404;-83
2022/06/10 14:47:06;;;;;;;23.87;22.37;;;;;;;;;;5096173;28;20432;-82
2022/06/10 14:49:39;;;;;;;23.13;21.60;;;;;;;;;;5093235;28;20432;-82
2022/06/10 14:52:09;;;;;;;23.63;21.80;;;;;;;;;;5095600;28;20765;-82